Flugplatz Wittmundhafen Airport

Bericht für ETNT

vom 16.01. um 09:36 UTC

Wind 9 kt aus 240°

Sichtweite 3500 m

schwacher Sprühregen

feuchter Dunst

aufgelockert bewölkt in 400 ft

aufgebrochene Bewölkung in 700 ft

Temperatur 4.0°C

Taupunkt 4.0°C

Luftfeuchtigkeit 100%

Luftdruck 1018 hPa

ETNT 160936Z 24009KT 3500 -DZ BR SCT004 BKN007 04/04 Q1018 YLO

Prognose für ETNT

vom 16.01. um 08:11 UTC

Zwischen 09:00 UTC und 18:00 UTC

Wind 10 kt aus 230°

Sichtweite 4000 m

keine signifikanten Wettererscheinungen

aufgebrochene Bewölkung in 500 ft


Zwischen 09:00 UTC und 18:00 UTC zeitweise

Wind 12 kt aus 260°

Sichtweite 1200 m

schwacher Sprühregen

aufgebrochene Bewölkung in 100 ft

TAF ETNT 160811Z 1609/1618 23010KT 4000 NSW BKN005 TEMPO 1609/1618 26012KT 1200 -DZ BKN001 BY ETGL
Impressum